createdAt,value
2022-10-04T00:01:50.531Z,3.20
2022-10-04T00:04:25.037Z,2.70
2022-10-04T00:06:59.104Z,3.10
2022-10-04T00:09:33.368Z,2.70
2022-10-04T00:12:03.020Z,2.90
2022-10-04T00:14:34.006Z,2.60
2022-10-04T00:17:11.559Z,2.50
2022-10-04T00:19:43.363Z,2.50
2022-10-04T00:22:18.384Z,2.70
2022-10-04T00:25:22.792Z,2.80
2022-10-04T00:28:18.326Z,2.23
2022-10-04T00:30:46.874Z,2.20
2022-10-04T00:33:36.075Z,2.60
2022-10-04T00:36:45.824Z,2.20
2022-10-04T00:39:26.144Z,2.80
2022-10-04T00:42:03.294Z,2.37
2022-10-04T00:44:38.499Z,2.53
2022-10-04T00:47:22.993Z,2.10
2022-10-04T00:49:56.025Z,1.97
2022-10-04T00:52:29.187Z,2.37
2022-10-04T00:55:03.921Z,2.40
2022-10-04T00:57:36.051Z,2.90
2022-10-04T01:00:09.334Z,2.33
2022-10-04T01:02:46.339Z,2.50
2022-10-04T01:05:19.471Z,2.07
2022-10-04T01:07:50.724Z,2.33
2022-10-04T01:10:26.159Z,2.50
2022-10-04T01:12:57.600Z,2.13
2022-10-04T01:15:35.625Z,2.50
2022-10-04T01:18:13.054Z,2.20
2022-10-04T01:20:50.160Z,2.17
2022-10-04T01:23:35.878Z,2.33
2022-10-04T01:26:05.851Z,1.83
2022-10-04T01:28:35.515Z,2.30
2022-10-04T01:31:03.764Z,2.50
2022-10-04T01:33:31.840Z,2.03
2022-10-04T01:35:59.942Z,2.37
2022-10-04T01:38:27.980Z,2.13
2022-10-04T01:41:00.432Z,1.97
2022-10-04T01:43:34.016Z,2.30
2022-10-04T01:46:06.926Z,2.40
2022-10-04T01:48:38.550Z,2.00
2022-10-04T01:51:14.243Z,2.30
2022-10-04T01:53:47.866Z,2.20
2022-10-04T01:56:20.638Z,2.30
2022-10-04T01:58:51.293Z,2.23
2022-10-04T02:01:24.901Z,2.07
2022-10-04T02:03:59.038Z,2.20
2022-10-04T02:06:27.246Z,1.60
2022-10-04T02:08:57.670Z,2.43
2022-10-04T02:11:31.233Z,2.13
2022-10-04T02:14:00.420Z,2.20
2022-10-04T02:16:28.663Z,2.17
2022-10-04T02:18:57.416Z,1.73
2022-10-04T02:21:25.677Z,2.47
2022-10-04T02:23:55.473Z,2.10
2022-10-04T02:26:23.530Z,2.10
2022-10-04T02:28:52.957Z,2.03
2022-10-04T02:31:41.416Z,1.63
2022-10-04T02:34:10.188Z,2.03
2022-10-04T02:36:40.791Z,2.40
2022-10-04T02:39:15.842Z,2.13
2022-10-04T02:41:48.610Z,2.37
2022-10-04T02:44:22.642Z,1.57
2022-10-04T02:46:54.730Z,2.40
2022-10-04T02:49:31.936Z,2.20
2022-10-04T02:52:07.009Z,2.27
2022-10-04T02:54:42.047Z,2.40
2022-10-04T02:57:17.142Z,2.93
2022-10-04T02:59:46.926Z,1.93
2022-10-04T03:02:29.824Z,1.87
2022-10-04T03:05:04.768Z,1.50
2022-10-04T03:07:33.713Z,2.00
2022-10-04T03:10:02.809Z,2.40
2022-10-04T03:12:31.759Z,1.90
2022-10-04T03:15:01.206Z,2.00
2022-10-04T03:17:29.654Z,2.60
2022-10-04T03:19:58.334Z,2.13
2022-10-04T03:22:26.467Z,2.07
2022-10-04T03:24:58.198Z,2.13
2022-10-04T03:27:29.790Z,1.80
2022-10-04T03:29:59.498Z,2.20
2022-10-04T03:32:30.553Z,1.87
2022-10-04T03:35:00.235Z,2.20
2022-10-04T03:37:32.165Z,2.47
2022-10-04T03:40:01.705Z,2.30
2022-10-04T03:42:32.594Z,2.17
2022-10-04T03:45:03.721Z,2.50
2022-10-04T03:47:36.532Z,2.00
2022-10-04T03:50:23.833Z,2.43
2022-10-04T03:52:56.031Z,1.90
2022-10-04T03:55:31.453Z,2.33
2022-10-04T03:58:00.535Z,2.40
2022-10-04T04:00:28.789Z,2.37
2022-10-04T04:03:01.750Z,1.90
2022-10-04T04:05:32.624Z,2.50
2022-10-04T04:08:08.132Z,2.47
2022-10-04T04:10:39.538Z,2.70
2022-10-04T04:13:25.011Z,2.60
2022-10-04T04:15:56.515Z,2.47
2022-10-04T04:18:30.126Z,3.10
2022-10-04T04:21:00.372Z,3.00
2022-10-04T04:23:32.801Z,2.30
2022-10-04T04:26:16.073Z,2.37
2022-10-04T04:28:49.382Z,2.00
2022-10-04T04:31:23.034Z,2.27
2022-10-04T04:33:59.286Z,2.40
2022-10-04T04:36:28.568Z,3.20
2022-10-04T04:39:25.927Z,2.60
2022-10-04T04:41:54.000Z,2.80
2022-10-04T04:44:28.991Z,3.10
2022-10-04T04:47:00.414Z,2.70
2022-10-04T04:49:32.563Z,2.47
2022-10-04T04:52:00.976Z,2.90
2022-10-04T04:54:29.125Z,2.60
2022-10-04T04:56:58.036Z,2.43
2022-10-04T04:59:28.112Z,2.80
2022-10-04T05:01:56.169Z,2.27
2022-10-04T05:04:24.934Z,2.97
2022-10-04T05:07:03.974Z,2.93
2022-10-04T05:09:34.274Z,2.40
2022-10-04T05:12:10.668Z,2.23
2022-10-04T05:14:42.027Z,2.90
2022-10-04T05:17:20.076Z,2.37
2022-10-04T05:19:48.237Z,2.93
2022-10-04T05:22:21.810Z,2.90
2022-10-04T05:24:53.168Z,2.33
2022-10-04T05:27:28.037Z,2.90
2022-10-04T05:30:03.383Z,2.00
2022-10-04T05:37:09.947Z,2.27
2022-10-04T05:39:44.970Z,2.40
2022-10-04T05:42:21.123Z,2.30
2022-10-04T05:45:02.862Z,2.47
2022-10-04T05:47:32.118Z,2.30
2022-10-04T05:50:01.828Z,2.57
2022-10-04T05:52:33.278Z,3.23
2022-10-04T05:55:19.426Z,2.47
2022-10-04T05:58:10.233Z,3.27
2022-10-04T06:00:46.614Z,3.13
2022-10-04T06:03:41.471Z,2.57
2022-10-04T06:06:17.445Z,2.10
2022-10-04T06:08:57.289Z,3.10
2022-10-04T06:11:40.595Z,2.60
2022-10-04T06:14:38.970Z,2.87
2022-10-04T06:17:38.550Z,2.73
2022-10-04T06:20:36.297Z,2.23
2022-10-04T06:23:13.432Z,2.77
2022-10-04T06:25:47.108Z,2.80
2022-10-04T06:28:21.574Z,1.80
2022-10-04T06:31:07.828Z,2.83
2022-10-04T06:33:56.074Z,2.13
2022-10-04T06:36:44.546Z,2.50
2022-10-04T06:39:26.528Z,2.63
2022-10-04T06:42:35.279Z,2.10
2022-10-04T06:45:32.750Z,2.87
2022-10-04T06:48:24.150Z,2.73
2022-10-04T06:51:03.262Z,2.00
2022-10-04T06:53:51.735Z,2.33
2022-10-04T06:56:39.972Z,2.27
2022-10-04T06:59:43.331Z,2.30
2022-10-04T07:02:23.306Z,2.00
2022-10-04T07:05:10.033Z,3.03
2022-10-04T07:07:48.524Z,3.50
2022-10-04T07:10:34.197Z,2.17
2022-10-04T07:13:35.975Z,2.47
2022-10-04T07:16:10.147Z,2.60
2022-10-04T07:18:56.876Z,4.43
2022-10-04T07:21:28.729Z,2.70
2022-10-04T07:24:01.692Z,2.60
2022-10-04T07:26:37.311Z,2.10
2022-10-04T07:29:23.242Z,2.90
2022-10-04T07:32:03.099Z,2.43
2022-10-04T07:34:37.722Z,2.83
2022-10-04T07:37:12.642Z,3.10
2022-10-04T07:39:50.332Z,2.33
2022-10-04T07:42:24.623Z,2.70
2022-10-04T07:45:05.932Z,3.00
2022-10-04T07:47:34.105Z,3.47
2022-10-04T07:50:24.733Z,2.07
2022-10-04T07:52:57.623Z,2.63
2022-10-04T07:55:31.586Z,2.97
2022-10-04T07:58:23.177Z,1.87
2022-10-04T08:00:56.031Z,2.07
2022-10-04T08:03:48.815Z,2.97
2022-10-04T08:06:23.139Z,2.43
2022-10-04T08:09:17.690Z,2.30
2022-10-04T08:11:53.955Z,2.20
2022-10-04T08:14:38.274Z,2.90
2022-10-04T08:17:18.923Z,2.07
2022-10-04T08:19:56.558Z,2.83
2022-10-04T08:22:35.375Z,2.70
2022-10-04T08:25:12.573Z,2.40
2022-10-04T08:28:07.221Z,2.20
2022-10-04T08:30:52.858Z,2.50
2022-10-04T08:33:30.494Z,3.10
2022-10-04T08:36:09.387Z,2.20
2022-10-04T08:38:45.326Z,2.20
2022-10-04T08:41:46.708Z,3.37
2022-10-04T08:44:56.838Z,3.00
2022-10-04T08:47:54.537Z,3.10
2022-10-04T08:50:54.984Z,3.03
2022-10-04T08:54:01.988Z,3.20
2022-10-04T08:56:58.800Z,3.20
2022-10-04T09:00:07.263Z,3.27
2022-10-04T09:03:13.820Z,2.87
2022-10-04T09:06:16.019Z,2.53
2022-10-04T09:09:16.500Z,2.83
2022-10-04T09:12:03.593Z,2.50
2022-10-04T09:15:03.069Z,3.27
2022-10-04T09:17:41.994Z,2.70
2022-10-04T09:20:39.324Z,2.80
2022-10-04T09:23:23.056Z,2.80
2022-10-04T09:26:01.141Z,2.60
2022-10-04T09:28:50.001Z,2.83
2022-10-04T09:31:32.107Z,2.20
2022-10-04T09:34:22.118Z,2.73
2022-10-04T09:37:15.393Z,3.20
2022-10-04T09:40:06.533Z,3.10
2022-10-04T09:43:02.020Z,2.60
2022-10-04T09:45:49.176Z,3.47
2022-10-04T09:48:27.071Z,2.90
2022-10-04T09:51:25.370Z,2.97
2022-10-04T09:54:11.902Z,2.93
2022-10-04T09:57:11.857Z,2.20
2022-10-04T10:00:11.845Z,2.87
2022-10-04T10:03:15.891Z,2.40
2022-10-04T10:06:25.965Z,1.90
2022-10-04T10:09:13.620Z,2.37
2022-10-04T10:12:07.181Z,3.00
2022-10-04T10:15:01.864Z,2.23
2022-10-04T10:17:40.110Z,2.83
2022-10-04T10:20:36.353Z,3.10
2022-10-04T10:23:35.257Z,2.20
2022-10-04T10:26:32.857Z,2.70
2022-10-04T10:29:24.071Z,2.20
2022-10-04T10:32:10.376Z,3.00
2022-10-04T10:35:06.268Z,2.40
2022-10-04T10:37:49.833Z,2.83
2022-10-04T10:40:33.038Z,2.53
2022-10-04T10:43:30.755Z,2.27
2022-10-04T10:46:15.435Z,3.07
2022-10-04T10:49:06.473Z,2.33
2022-10-04T10:52:06.132Z,2.47
2022-10-04T10:54:57.607Z,1.80
2022-10-04T10:57:48.410Z,2.10
2022-10-04T11:00:22.105Z,2.20
2022-10-04T11:03:32.285Z,2.63
2022-10-04T11:06:47.531Z,2.67
2022-10-04T11:09:30.598Z,2.13
2022-10-04T11:12:24.038Z,2.13
2022-10-04T11:15:07.134Z,2.50
2022-10-04T11:18:09.194Z,3.57
2022-10-04T11:21:06.164Z,1.83
2022-10-04T11:24:21.956Z,2.30
2022-10-04T11:27:02.314Z,2.30
2022-10-04T11:29:48.771Z,2.20
2022-10-04T11:32:59.491Z,2.13
2022-10-04T11:35:46.931Z,1.97
2022-10-04T11:38:29.903Z,2.27
2022-10-04T11:41:14.623Z,2.33
2022-10-04T11:44:07.041Z,2.27
2022-10-04T11:46:46.253Z,1.80
2022-10-04T11:49:35.955Z,1.83
2022-10-04T11:52:31.714Z,1.70
2022-10-04T11:55:46.782Z,1.70
2022-10-04T11:58:21.615Z,1.53
2022-10-04T12:01:14.073Z,1.60
2022-10-04T12:04:24.076Z,1.23
2022-10-04T12:07:13.705Z,1.10
2022-10-04T12:09:47.806Z,1.50
2022-10-04T12:12:49.891Z,1.70
2022-10-04T12:15:40.431Z,1.20
2022-10-04T12:18:56.182Z,1.73
2022-10-04T12:21:42.041Z,1.60
2022-10-04T12:24:22.065Z,2.03
2022-10-04T12:27:13.685Z,1.30
2022-10-04T12:30:19.450Z,1.33
2022-10-04T12:32:58.215Z,1.70
2022-10-04T12:35:37.869Z,1.40
2022-10-04T12:38:40.307Z,1.60
2022-10-04T12:41:18.629Z,1.60
2022-10-04T12:43:52.833Z,1.70
2022-10-04T12:46:33.185Z,2.73
2022-10-04T12:49:15.342Z,1.47
2022-10-04T12:51:52.741Z,1.10
2022-10-04T12:54:40.343Z,1.60
2022-10-04T12:57:42.516Z,1.70
2022-10-04T13:00:20.664Z,1.43
2022-10-04T13:03:03.446Z,1.53
2022-10-04T13:05:37.740Z,1.83
2022-10-04T13:08:30.388Z,1.70
2022-10-04T13:11:22.259Z,1.43
2022-10-04T13:14:19.097Z,1.60
2022-10-04T13:19:53.915Z,1.60
2022-10-04T13:22:55.811Z,1.83
2022-10-04T13:25:40.803Z,1.77
2022-10-04T13:28:20.667Z,1.40
2022-10-04T13:30:55.018Z,1.70
2022-10-04T13:33:30.045Z,1.53
2022-10-04T13:36:06.712Z,1.83
2022-10-04T13:38:56.118Z,1.87
2022-10-04T13:41:43.512Z,1.40
2022-10-04T13:44:30.529Z,1.40
2022-10-04T13:47:33.737Z,1.60
2022-10-04T13:50:20.494Z,1.40
2022-10-04T13:53:13.217Z,1.60
2022-10-04T13:56:05.389Z,1.40
2022-10-04T13:58:46.496Z,1.80
2022-10-04T14:01:49.173Z,1.50
2022-10-04T14:04:42.672Z,1.30
2022-10-04T14:07:38.134Z,1.30
2022-10-04T14:10:35.093Z,1.50
2022-10-04T14:13:36.345Z,1.30
2022-10-04T14:16:34.060Z,1.10
2022-10-04T14:19:40.819Z,1.83
2022-10-04T14:22:49.964Z,1.10
2022-10-04T14:25:54.902Z,1.20
2022-10-04T14:28:51.422Z,1.73
2022-10-04T14:32:05.965Z,1.40
2022-10-04T14:34:57.098Z,1.60
2022-10-04T14:37:58.261Z,1.10
2022-10-04T14:40:52.509Z,1.60
2022-10-04T14:44:02.446Z,1.30
2022-10-04T14:46:42.143Z,1.10
2022-10-04T14:49:22.087Z,1.30
2022-10-04T14:52:08.284Z,1.37
2022-10-04T14:54:46.422Z,1.60
2022-10-04T14:57:22.740Z,1.37
2022-10-04T15:00:11.029Z,1.50
2022-10-04T15:03:13.583Z,1.10
2022-10-04T15:06:06.760Z,1.50
2022-10-04T15:09:03.095Z,1.37
2022-10-04T15:11:41.686Z,1.90
2022-10-04T15:14:31.671Z,1.30
2022-10-04T15:17:02.085Z,1.13
2022-10-04T15:19:36.668Z,1.33
2022-10-04T15:22:14.965Z,1.20
2022-10-04T15:24:49.162Z,1.37
2022-10-04T15:27:46.585Z,1.50
2022-10-04T15:30:22.944Z,1.47
2022-10-04T15:33:00.758Z,1.83
2022-10-04T15:35:38.345Z,1.47
2022-10-04T15:38:19.877Z,1.20
2022-10-04T15:41:03.024Z,1.30
2022-10-04T15:43:36.702Z,1.10
2022-10-04T15:46:39.631Z,1.47
2022-10-04T15:49:24.877Z,1.73
2022-10-04T15:52:49.006Z,1.67
2022-10-04T15:55:21.803Z,1.23
2022-10-04T15:58:18.134Z,1.33
2022-10-04T16:01:03.859Z,1.40
2022-10-04T16:03:42.382Z,1.80
2022-10-04T16:06:19.820Z,1.50
2022-10-04T16:09:03.764Z,1.47
2022-10-04T16:11:45.320Z,1.53
2022-10-04T16:14:48.006Z,1.50
2022-10-04T16:17:53.132Z,1.90
2022-10-04T16:21:06.075Z,2.10
2022-10-04T16:23:36.181Z,1.57
2022-10-04T16:26:07.528Z,1.60
2022-10-04T16:28:59.005Z,1.90
2022-10-04T16:31:50.582Z,1.90
2022-10-04T16:34:41.485Z,1.70
2022-10-04T16:37:29.142Z,1.30
2022-10-04T16:40:00.747Z,1.33
2022-10-04T16:42:39.950Z,1.47
2022-10-04T16:45:49.525Z,1.40
2022-10-04T16:48:32.975Z,1.90
2022-10-04T16:51:32.570Z,1.50
2022-10-04T16:54:10.430Z,1.80
2022-10-04T16:57:12.143Z,1.60
2022-10-04T16:59:56.862Z,1.60
2022-10-04T17:02:55.034Z,1.70
2022-10-04T17:05:37.034Z,1.77
2022-10-04T17:08:49.734Z,1.63
2022-10-04T17:11:41.241Z,1.87
2022-10-04T17:14:41.326Z,1.90
2022-10-04T17:18:01.068Z,1.60
2022-10-04T17:20:47.940Z,1.90
2022-10-04T17:23:44.647Z,1.50
2022-10-04T17:26:22.426Z,2.07
2022-10-04T17:28:56.597Z,2.00
2022-10-04T17:31:33.428Z,1.93
2022-10-04T17:34:10.300Z,2.20
2022-10-04T17:36:44.417Z,2.33
2022-10-04T17:39:41.014Z,2.00
2022-10-04T17:42:30.226Z,1.80
2022-10-04T17:45:15.288Z,2.20
2022-10-04T17:48:08.213Z,2.30
2022-10-04T17:51:00.759Z,1.97
2022-10-04T17:53:49.971Z,2.27
2022-10-04T17:56:31.084Z,2.90
2022-10-04T17:59:00.466Z,2.70
2022-10-04T18:01:32.983Z,2.30
2022-10-04T18:04:09.510Z,2.57
2022-10-04T18:06:42.867Z,2.37
2022-10-04T18:09:23.161Z,2.73
2022-10-04T18:11:53.428Z,1.90
2022-10-04T18:14:47.134Z,2.40
2022-10-04T18:17:27.271Z,2.30
2022-10-04T18:20:08.647Z,2.70
2022-10-04T18:22:47.783Z,2.47
2022-10-04T18:25:23.232Z,2.43
2022-10-04T18:28:01.007Z,3.03
2022-10-04T18:30:29.186Z,2.00
2022-10-04T18:32:58.282Z,1.83
2022-10-04T18:35:28.389Z,1.93
2022-10-04T18:37:59.738Z,2.60
2022-10-04T18:40:35.299Z,2.40
2022-10-04T18:43:03.402Z,2.07
2022-10-04T18:45:33.646Z,2.30
2022-10-04T18:48:03.637Z,2.33
2022-10-04T18:50:37.039Z,2.80
2022-10-04T18:53:32.414Z,2.63
2022-10-04T18:56:04.510Z,2.23
2022-10-04T18:59:05.647Z,2.80
2022-10-04T19:02:03.174Z,2.33
2022-10-04T19:04:45.022Z,2.83
2022-10-04T19:07:16.370Z,3.10
2022-10-04T19:10:22.152Z,2.97
2022-10-04T19:13:12.466Z,2.40
2022-10-04T19:15:50.435Z,2.23
2022-10-04T19:18:33.770Z,2.10
2022-10-04T19:21:08.540Z,2.57
2022-10-04T19:23:49.282Z,2.60
2022-10-04T19:26:33.218Z,2.20
2022-10-04T19:29:11.376Z,2.30
2022-10-04T19:31:49.157Z,2.40
2022-10-04T19:34:22.624Z,2.70
2022-10-04T19:36:57.865Z,2.40
2022-10-04T19:39:37.483Z,2.40
2022-10-04T19:42:11.002Z,3.77
2022-10-04T19:45:15.302Z,2.97
2022-10-04T19:47:50.299Z,2.37
2022-10-04T19:50:22.098Z,4.60
2022-10-04T19:52:54.342Z,3.07
2022-10-04T19:55:27.513Z,3.33
2022-10-04T19:58:03.478Z,3.53
2022-10-04T20:00:35.671Z,3.37
2022-10-04T20:03:10.568Z,2.50
2022-10-04T20:05:44.536Z,2.50
2022-10-04T20:08:13.672Z,2.63
2022-10-04T20:10:42.893Z,3.50
2022-10-04T20:13:24.034Z,3.00
2022-10-04T20:16:02.431Z,2.60
2022-10-04T20:19:09.649Z,3.10
2022-10-04T20:21:38.200Z,2.50
2022-10-04T20:24:17.259Z,2.53
2022-10-04T20:27:04.363Z,3.10
2022-10-04T20:30:01.679Z,2.80
2022-10-04T20:33:01.852Z,2.40
2022-10-04T20:36:12.313Z,2.67
2022-10-04T20:38:59.390Z,3.13
2022-10-04T20:42:22.306Z,3.20
2022-10-04T20:44:56.698Z,3.73
2022-10-04T20:47:46.335Z,3.53
2022-10-04T20:50:21.117Z,2.90
2022-10-04T20:52:52.666Z,2.70
2022-10-04T20:55:28.256Z,3.53
2022-10-04T20:57:59.447Z,2.90
2022-10-04T21:00:33.608Z,2.90
2022-10-04T21:03:16.831Z,2.93
2022-10-04T21:05:49.889Z,3.17
2022-10-04T21:08:25.843Z,2.87
2022-10-04T21:11:19.775Z,3.10
2022-10-04T21:14:07.254Z,2.80
2022-10-04T21:16:37.874Z,2.20
2022-10-04T21:19:31.285Z,3.10
2022-10-04T21:22:00.587Z,2.40
2022-10-04T21:24:36.161Z,2.40
2022-10-04T21:27:07.029Z,2.70
2022-10-04T21:29:36.230Z,3.07
2022-10-04T21:32:04.359Z,2.87
2022-10-04T21:34:52.509Z,2.90
2022-10-04T21:37:20.866Z,2.67
2022-10-04T21:39:48.858Z,2.90
2022-10-04T21:42:18.376Z,2.57
2022-10-04T21:44:46.367Z,2.73
2022-10-04T21:47:14.443Z,3.17
2022-10-04T21:49:42.778Z,2.23
2022-10-04T21:52:10.790Z,2.70
2022-10-04T21:54:38.741Z,3.00
2022-10-04T21:57:06.732Z,2.07
2022-10-04T21:59:36.047Z,2.30
2022-10-04T22:02:04.092Z,2.63
2022-10-04T22:04:41.537Z,3.00
2022-10-04T22:07:10.510Z,3.83
2022-10-04T22:09:38.605Z,2.87
2022-10-04T22:12:06.755Z,2.20
2022-10-04T22:14:36.145Z,2.60
2022-10-04T22:17:04.288Z,2.10
2022-10-04T22:19:32.373Z,2.83
2022-10-04T22:22:00.406Z,2.40
2022-10-04T22:24:28.429Z,2.20
2022-10-04T22:26:58.115Z,2.60
2022-10-04T22:29:28.110Z,2.50
2022-10-04T22:31:57.505Z,2.47
2022-10-04T22:34:25.571Z,2.40
2022-10-04T22:36:53.816Z,2.37
2022-10-04T22:39:22.799Z,2.40
2022-10-04T22:41:54.799Z,2.00
2022-10-04T22:44:25.194Z,2.87
2022-10-04T22:46:55.494Z,2.53
2022-10-04T22:49:26.574Z,2.77
2022-10-04T22:51:57.092Z,2.30
2022-10-04T22:54:27.444Z,2.53
2022-10-04T22:57:01.675Z,2.53
2022-10-04T22:59:35.601Z,2.20
2022-10-04T23:02:10.908Z,2.37
2022-10-04T23:04:42.023Z,2.60
2022-10-04T23:07:10.067Z,2.97
2022-10-04T23:09:38.048Z,2.50
2022-10-04T23:12:09.518Z,3.00
2022-10-04T23:14:38.255Z,2.83
2022-10-04T23:17:21.400Z,2.67
2022-10-04T23:19:52.990Z,2.60
2022-10-04T23:22:25.718Z,2.80
2022-10-04T23:24:53.954Z,2.00
2022-10-04T23:27:22.110Z,2.60
2022-10-04T23:29:54.376Z,2.40
2022-10-04T23:32:22.430Z,2.50
2022-10-04T23:34:56.452Z,2.23
2022-10-04T23:37:28.541Z,2.63
2022-10-04T23:39:56.588Z,2.30
2022-10-04T23:43:21.583Z,2.93
2022-10-04T23:45:49.689Z,2.10
2022-10-04T23:48:22.731Z,2.53
2022-10-04T23:50:54.015Z,2.70
2022-10-04T23:53:26.664Z,2.53
2022-10-04T23:55:56.045Z,2.70
2022-10-04T23:58:26.755Z,2.07
